Time;durP1;ratioP1;P1;durP2;ratioP2;P2;SDS_P1;SDS_P2;PMS_P1;PMS_P2;Temp;Humidity;BMP_temperature;BMP_pressure;BME280_temperature;BME280_humidity;BME280_pressure;Samples;Min_cycle;Max_cycle;Signal;HPM_P1;HPM_P2
2022/10/26 00:00:47;;;;;;;17.13;4.75;;;;;;;19.51;44.49;99930.78;5051259;28;20021;-36
2022/10/26 00:03:13;;;;;;;15.68;5.00;;;;;;;19.22;45.02;99927.56;5051568;28;20086;-37
2022/10/26 00:05:38;;;;;;;17.25;4.97;;;;;;;19.34;44.70;99927.38;5051665;28;20025;-36
2022/10/26 00:08:05;;;;;;;14.05;5.32;;;;;;;19.17;45.04;99924.00;5051373;28;20017;-36
2022/10/26 00:10:33;;;;;;;19.23;5.18;;;;;;;19.08;45.28;99929.88;5051831;28;20024;-36
2022/10/26 00:12:58;;;;;;;15.00;4.60;;;;;;;19.37;44.72;99944.97;5051741;28;20078;-37
2022/10/26 00:15:24;;;;;;;17.95;5.15;;;;;;;19.54;44.23;99926.75;5051581;28;20025;-36
2022/10/26 00:17:49;;;;;;;16.33;5.05;;;;;;;19.94;43.50;99935.44;5051593;28;20017;-36
2022/10/26 00:20:15;;;;;;;17.13;5.45;;;;;;;19.86;43.28;99934.84;5051495;28;20468;-37
2022/10/26 00:22:41;;;;;;;17.42;4.80;;;;;;;19.91;43.00;99929.47;5051225;28;20041;-36
2022/10/26 00:25:06;;;;;;;16.13;5.30;;;;;;;19.72;43.57;99926.38;5051767;28;20071;-36
2022/10/26 00:27:36;;;;;;;22.00;5.47;;;;;;;19.70;43.59;99930.38;5052017;28;20487;-36
2022/10/26 00:30:05;;;;;;;17.00;4.63;;;;;;;19.96;42.81;99931.38;5051728;28;20502;-36
2022/10/26 00:32:30;;;;;;;;;;;;;;;19.82;42.76;99932.91;5052072;28;20315;-36
2022/10/26 00:34:56;;;;;;;16.98;4.63;;;;;;;19.81;42.79;99925.91;5051704;28;19915;-36
2022/10/26 00:37:21;;;;;;;21.58;5.07;;;;;;;19.25;43.62;99926.25;5051246;28;20029;-36
2022/10/26 00:39:47;;;;;;;18.80;4.72;;;;;;;19.28;43.23;99923.03;5051260;28;20056;-36
2022/10/26 00:42:17;;;;;;;19.30;4.72;;;;;;;19.29;43.31;99927.38;5051339;28;20073;-36
2022/10/26 00:44:46;;;;;;;16.38;4.45;;;;;;;19.36;43.27;99933.34;5051538;28;20116;-36
2022/10/26 00:47:15;;;;;;;16.80;4.55;;;;;;;19.31;43.06;99926.03;5051226;28;20021;-36
2022/10/26 00:49:41;;;;;;;15.38;4.40;;;;;;;19.21;42.94;99930.50;5051642;28;20123;-36
2022/10/26 00:52:08;;;;;;;15.70;4.55;;;;;;;19.21;43.49;99936.75;5051067;28;20369;-36
2022/10/26 00:54:34;;;;;;;19.98;5.13;;;;;;;19.53;42.71;99941.31;5051100;28;20029;-36
2022/10/26 00:56:59;;;;;;;19.02;4.78;;;;;;;19.46;42.94;99933.44;5051611;28;20025;-36
2022/10/26 00:59:25;;;;;;;14.98;4.30;;;;;;;19.07;43.95;99930.13;5051124;28;20070;-36
2022/10/26 01:01:51;;;;;;;17.10;4.30;;;;;;;19.18;44.03;99926.44;5051164;28;20092;-36
2022/10/26 01:04:17;;;;;;;13.85;4.30;;;;;;;19.08;44.04;99924.47;5051195;28;20033;-36
2022/10/26 01:06:44;;;;;;;15.05;4.40;;;;;;;19.22;44.13;99930.25;5051066;28;20025;-36
2022/10/26 01:09:11;;;;;;;12.48;4.13;;;;;;;19.41;43.56;99909.09;5050994;28;20029;-36
2022/10/26 01:11:36;;;;;;;18.35;4.40;;;;;;;19.38;44.29;99922.28;5050906;28;20033;-36
2022/10/26 01:14:05;;;;;;;14.07;4.72;;;;;;;19.46;44.49;99924.53;5050840;28;20025;-36
2022/10/26 01:16:49;;;;;;;15.18;4.80;;;;;;;19.34;44.89;99930.91;5051201;28;20052;-36
2022/10/26 01:19:14;;;;;;;20.48;4.70;;;;;;;19.18;45.42;99929.16;5050894;28;20036;-36
2022/10/26 01:21:59;;;;;;;14.02;4.78;;;;;;;19.34;44.92;99935.47;5051471;28;20070;-36
2022/10/26 01:24:39;;;;;;;15.88;4.30;;;;;;;19.65;44.38;99930.34;5051466;28;20047;-36
2022/10/26 01:27:13;;;;;;;13.27;4.50;;;;;;;19.23;45.50;99925.66;5050940;28;20028;-36
2022/10/26 01:30:15;;;;;;;15.38;4.20;;;;;;;18.92;46.28;99933.47;5050721;28;20033;-36
2022/10/26 01:33:02;;;;;;;10.35;4.15;;;;;;;19.02;46.27;99932.75;5051047;28;20373;-36
2022/10/26 01:35:45;;;;;;;16.35;4.60;;;;;;;18.89;46.54;99928.59;5051003;28;20021;-36
2022/10/26 01:38:30;;;;;;;10.05;4.40;;;;;;;19.14;45.94;99931.53;5050834;28;20100;-36
2022/10/26 01:41:10;;;;;;;18.45;4.70;;;;;;;19.30;45.68;99931.69;5050854;28;20117;-36
2022/10/26 01:43:42;;;;;;;15.02;4.55;;;;;;;19.19;45.41;99930.78;5050703;28;20029;-36
2022/10/26 01:46:08;;;;;;;11.38;4.20;;;;;;;19.33;44.87;99936.56;5050665;28;20029;-36
2022/10/26 01:48:36;;;;;;;13.70;4.35;;;;;;;19.69;43.87;99934.16;5050661;28;20025;-36
2022/10/26 01:51:05;;;;;;;15.25;4.65;;;;;;;19.64;44.03;99926.00;5050697;28;20021;-36
2022/10/26 01:53:30;;;;;;;10.75;4.43;;;;;;;19.69;44.01;99928.75;5051016;28;20105;-36
2022/10/26 01:55:57;;;;;;;17.65;4.47;;;;;;;19.67;43.63;99928.22;5050856;28;20068;-36
2022/10/26 01:58:41;;;;;;;14.88;4.25;;;;;;;19.73;43.30;99933.41;5050500;28;20025;-36
2022/10/26 02:01:20;;;;;;;14.63;4.40;;;;;;;19.76;43.33;99917.75;5050880;28;20473;-36
2022/10/26 02:03:52;;;;;;;17.58;4.90;;;;;;;19.78;43.16;99921.84;5050884;28;20436;-37
2022/10/26 02:06:41;;;;;;;14.40;3.97;;;;;;;19.67;43.32;99923.63;5050756;28;20021;-35
2022/10/26 02:09:10;;;;;;;13.00;4.32;;;;;;;19.55;43.39;99920.28;5050921;28;20079;-35
2022/10/26 02:11:45;;;;;;;14.18;4.10;;;;;;;19.37;44.10;99921.50;5050608;28;20029;-35
2022/10/26 02:14:40;;;;;;;15.32;4.00;;;;;;;19.33;43.75;99921.19;5050619;28;20075;-37
2022/10/26 02:17:38;;;;;;;19.00;4.32;;;;;;;19.73;43.21;99919.91;5054341;28;20029;-35
2022/10/26 02:20:10;;;;;;;12.52;4.03;;;;;;;19.45;43.56;99928.28;5054498;28;20036;-37
2022/10/26 02:22:51;;;;;;;12.25;4.03;;;;;;;19.59;43.21;99925.97;5053734;28;20065;-37
2022/10/26 02:25:22;;;;;;;14.35;4.22;;;;;;;19.61;43.14;99937.31;5054168;28;20060;-37
2022/10/26 02:27:54;;;;;;;10.73;4.22;;;;;;;19.75;43.15;99924.25;5054240;28;20100;-35
2022/10/26 02:30:20;;;;;;;18.10;3.90;;;;;;;19.46;43.96;99922.66;5054111;28;20107;-35
2022/10/26 02:32:51;;;;;;;10.70;3.95;;;;;;;19.48;43.96;99928.59;5053636;28;20036;-35
2022/10/26 02:35:20;;;;;;;12.55;4.32;;;;;;;19.42;44.37;99929.63;5053585;28;20113;-35
2022/10/26 02:37:48;;;;;;;14.52;4.53;;;;;;;19.43;44.58;99927.75;5053476;28;20452;-35
2022/10/26 02:40:17;;;;;;;12.68;3.70;;;;;;;19.33;44.67;99909.59;5052740;28;20051;-35
2022/10/26 02:42:45;;;;;;;12.23;4.07;;;;;;;19.46;44.50;99930.75;5053729;28;20170;-36
2022/10/26 02:45:16;;;;;;;14.45;4.03;;;;;;;19.25;44.78;99928.97;5051962;28;20560;-36
2022/10/26 02:47:41;;;;;;;20.08;5.00;;;;;;;19.64;44.05;99934.13;5053544;28;20260;-36
2022/10/26 02:50:07;;;;;;;13.93;4.53;;;;;;;19.88;43.63;99934.59;5053276;28;20024;-36
2022/10/26 02:53:00;;;;;;;11.85;4.15;;;;;;;20.02;43.17;99934.94;5053586;28;20382;-37
2022/10/26 02:55:34;;;;;;;12.75;4.20;;;;;;;20.00;42.79;99934.38;5053522;28;20025;-36
2022/10/26 02:58:05;;;;;;;12.90;4.32;;;;;;;19.87;42.83;99935.66;5053325;28;20021;-37
2022/10/26 03:00:31;;;;;;;18.20;4.50;;;;;;;19.64;43.87;99939.50;5053040;28;20021;-37
2022/10/26 03:02:58;;;;;;;9.27;3.90;;;;;;;19.36;44.24;99937.94;5052808;28;20082;-37
2022/10/26 03:05:31;;;;;;;14.70;4.30;;;;;;;19.49;44.42;99945.59;5053148;28;20121;-37
2022/10/26 03:07:57;;;;;;;10.68;4.28;;;;;;;19.37;44.60;99934.97;5053106;28;20078;-36
2022/10/26 03:10:23;;;;;;;16.85;4.63;;;;;;;19.36;44.59;99938.72;5053491;28;20499;-37
2022/10/26 03:12:48;;;;;;;15.73;4.13;;;;;;;19.18;45.13;99944.53;5052723;28;20025;-37
2022/10/26 03:15:14;;;;;;;15.90;4.50;;;;;;;19.45;44.37;99941.78;5053488;28;20368;-37
2022/10/26 03:17:40;;;;;;;66.97;37.28;;;;;;;19.16;45.63;99941.28;5053058;28;20032;-36
2022/10/26 03:20:06;;;;;;;16.00;5.25;;;;;;;19.18;45.61;99933.75;5052935;28;20029;-36
2022/10/26 03:22:31;;;;;;;17.00;5.93;;;;;;;19.43;44.95;99941.22;5052901;28;20041;-36
2022/10/26 03:24:57;;;;;;;13.90;5.00;;;;;;;19.46;44.61;99944.25;5053301;28;20078;-37
2022/10/26 03:27:22;;;;;;;13.07;4.70;;;;;;;19.52;44.05;99940.50;5051884;28;20025;-38
2022/10/26 03:29:48;;;;;;;11.23;3.97;;;;;;;19.78;43.21;99938.03;5052876;28;20021;-36
2022/10/26 03:32:13;;;;;;;13.75;4.03;;;;;;;19.58;43.19;99945.94;5053155;28;20147;-36
2022/10/26 03:34:39;;;;;;;19.20;4.47;;;;;;;19.73;42.63;99941.50;5053137;28;20104;-36
2022/10/26 03:37:04;;;;;;;18.05;3.83;;;;;;;19.78;42.63;99939.91;5052899;28;20024;-35
2022/10/26 03:39:30;;;;;;;9.88;3.83;;;;;;;19.70;43.06;99942.00;5053037;28;20378;-36
2022/10/26 03:41:55;;;;;;;16.67;4.60;;;;;;;19.57;42.98;99945.13;5052892;28;20487;-35
2022/10/26 03:44:21;;;;;;;18.90;4.68;;;;;;;19.38;43.41;99949.28;5052494;28;20100;-41
2022/10/26 03:46:47;;;;;;;12.73;4.30;;;;;;;19.48;43.17;99954.78;5052474;28;20047;-37
2022/10/26 03:49:12;;;;;;;11.77;4.05;;;;;;;19.29;43.49;99957.03;5052138;28;20020;-36
2022/10/26 03:51:37;;;;;;;13.50;4.03;;;;;;;19.29;43.64;99962.44;5052083;28;20024;-35
2022/10/26 03:54:03;;;;;;;14.45;4.28;;;;;;;19.39;43.53;99964.41;5052032;28;20024;-35
2022/10/26 03:56:29;;;;;;;36.55;14.60;;;;;;;19.44;43.73;99967.13;5052506;28;20100;-36
2022/10/26 03:58:54;;;;;;;14.93;4.45;;;;;;;19.41;43.80;99971.16;5052270;28;20429;-36
2022/10/26 04:01:20;;;;;;;10.32;3.97;;;;;;;19.14;44.46;99977.41;5058542;28;20629;-36
2022/10/26 04:03:45;;;;;;;11.85;3.85;;;;;;;19.14;44.84;99966.59;5055297;28;20020;-36
2022/10/26 04:06:10;;;;;;;12.88;4.65;;;;;;;19.24;44.36;99978.56;5060067;28;20021;-36
2022/10/26 04:08:36;;;;;;;18.20;4.18;;;;;;;19.10;44.78;99975.47;5051964;28;20032;-39
2022/10/26 04:11:01;;;;;;;18.10;4.40;;;;;;;19.05;44.70;99976.22;5051848;28;20013;-37
2022/10/26 04:13:27;;;;;;;10.93;4.68;;;;;;;18.84;45.02;99966.28;5051925;28;20027;-37
2022/10/26 04:15:52;;;;;;;14.48;4.50;;;;;;;18.83;45.44;99983.50;5051988;28;20122;-34
2022/10/26 04:18:17;;;;;;;13.25;4.78;;;;;;;18.60;46.21;99982.69;5051802;28;20028;-35
2022/10/26 04:20:43;;;;;;;13.38;4.15;;;;;;;18.69;46.03;99983.88;5051156;28;20546;-36
2022/10/26 04:23:18;;;;;;;19.30;4.38;;;;;;;18.52;46.57;99985.81;5050353;28;20419;-36
2022/10/26 04:25:44;;;;;;;15.18;4.18;;;;;;;18.63;46.25;99992.16;5050968;28;20048;-36
2022/10/26 04:28:12;;;;;;;15.13;4.38;;;;;;;18.63;46.33;100002.94;5050719;28;20417;-36
2022/10/26 04:30:38;;;;;;;15.13;4.20;;;;;;;18.99;45.28;99992.59;5050686;28;20082;-36
2022/10/26 04:33:05;;;;;;;14.88;4.15;;;;;;;18.85;46.00;100001.09;5044099;28;20117;-36
2022/10/26 04:35:31;;;;;;;18.67;4.25;;;;;;;18.85;48.02;100002.94;5046498;28;20103;-37
2022/10/26 04:38:02;;;;;;;13.13;4.05;;;;;;;18.72;45.84;100012.22;5048827;28;20115;-36
2022/10/26 04:40:29;;;;;;;16.02;4.03;;;;;;;18.59;46.06;100013.41;5047587;28;20029;-35
2022/10/26 04:42:54;;;;;;;13.63;4.22;;;;;;;18.52;46.24;100007.38;5050578;28;20226;-36
2022/10/26 04:45:20;;;;;;;16.45;4.40;;;;;;;18.48;46.18;100017.81;5050371;28;20040;-35
2022/10/26 04:47:45;;;;;;;14.85;3.95;;;;;;;18.71;45.86;100021.34;5050871;28;20035;-36
2022/10/26 04:50:12;;;;;;;11.65;4.00;;;;;;;18.78;45.67;100027.38;5049555;28;20520;-35
2022/10/26 04:52:37;;;;;;;16.15;4.28;;;;;;;18.86;45.40;100026.16;5067589;28;20032;-37
2022/10/26 04:55:06;;;;;;;24.35;4.35;;;;;;;18.97;44.97;100019.00;5058454;28;20112;-37
2022/10/26 04:57:33;;;;;;;12.68;4.20;;;;;;;18.90;45.30;100025.41;5047242;28;20021;-36
2022/10/26 04:59:59;;;;;;;32.45;15.00;;;;;;;19.21;44.52;100024.94;5049377;28;20025;-36
2022/10/26 05:02:28;;;;;;;18.52;7.75;;;;;;;19.16;45.24;100027.59;5049335;28;20092;-36
2022/10/26 05:04:54;;;;;;;16.20;5.05;;;;;;;19.31;44.93;100023.16;5049379;28;20091;-36
2022/10/26 05:07:19;;;;;;;26.05;6.68;;;;;;;19.00;45.62;100030.13;5049448;28;20024;-35
2022/10/26 05:09:45;;;;;;;16.35;8.38;;;;;;;19.00;46.14;100031.97;5047004;28;20139;-37
2022/10/26 05:12:11;;;;;;;20.15;6.60;;;;;;;19.06;46.10;100034.50;5050899;28;20550;-36
2022/10/26 05:14:36;;;;;;;15.68;5.40;;;;;;;19.22;45.55;100029.25;5046901;28;20033;-37
2022/10/26 05:17:02;;;;;;;14.88;4.50;;;;;;;19.01;45.76;100029.03;5049905;28;20061;-37
2022/10/26 05:19:27;;;;;;;19.10;6.90;;;;;;;19.60;45.39;100041.78;5051698;28;20029;-36
2022/10/26 05:21:52;;;;;;;14.55;4.20;;;;;;;19.49;44.97;100054.34;5050368;28;20021;-36
2022/10/26 05:24:18;;;;;;;21.58;4.35;;;;;;;19.56;44.47;100058.75;5049399;28;20402;-36
2022/10/26 05:26:44;;;;;;;18.13;4.60;;;;;;;19.82;44.08;100057.13;5049441;28;20036;-42
2022/10/26 05:29:09;;;;;;;17.30;4.85;;;;;;;20.23;43.46;100060.94;5050514;28;20029;-42
2022/10/26 05:31:34;;;;;;;20.23;4.18;;;;;;;20.77;42.52;100062.66;5049179;28;20419;-42
2022/10/26 05:34:00;;;;;;;13.52;3.95;;;;;;;21.07;41.53;100067.38;5049247;28;20043;-42
2022/10/26 05:36:25;;;;;;;11.30;4.03;;;;;;;21.50;40.92;100069.16;5047614;28;20321;-42
2022/10/26 05:38:51;;;;;;;14.32;4.18;;;;;;;21.24;41.10;100075.28;5049108;28;20029;-42
2022/10/26 05:41:16;;;;;;;13.85;4.18;;;;;;;21.65;40.66;100071.88;5049601;28;20013;-43
2022/10/26 05:43:41;;;;;;;12.32;4.90;;;;;;;22.10;39.61;100070.25;5050269;28;20025;-42
2022/10/26 05:46:07;;;;;;;13.52;4.45;;;;;;;22.21;39.52;100071.88;5050349;28;20111;-42
2022/10/26 05:48:32;;;;;;;14.60;4.20;;;;;;;22.34;39.63;100078.66;5050844;28;20036;-41
2022/10/26 05:50:59;;;;;;;13.13;4.15;;;;;;;22.91;38.51;100090.19;5053269;28;20036;-42
2022/10/26 05:53:25;;;;;;;15.80;4.40;;;;;;;23.33;37.44;100077.28;5053797;28;20110;-42
2022/10/26 05:55:51;;;;;;;13.15;4.45;;;;;;;22.79;38.23;100090.50;5052802;28;20071;-42
2022/10/26 05:58:17;;;;;;;15.48;4.15;;;;;;;22.89;37.98;100091.56;5053652;28;20212;-42
2022/10/26 06:01:10;;;;;;;16.35;4.28;;;;;;;23.35;37.49;100091.38;5054267;28;20032;-42
2022/10/26 06:04:01;;;;;;;13.30;4.18;;;;;;;23.58;36.96;100095.31;5051672;28;20025;-41
2022/10/26 06:06:28;;;;;;;;;;;;;;;23.72;36.48;100093.59;5052782;28;20429;-42
2022/10/26 06:08:54;;;;;;;14.90;4.00;;;;;;;23.94;36.30;100104.06;5052631;28;20337;-42
2022/10/26 06:11:19;;;;;;;13.10;4.28;;;;;;;24.46;35.37;100104.41;5052985;28;20032;-43
2022/10/26 06:13:45;;;;;;;17.58;4.30;;;;;;;24.34;35.31;100107.50;5052833;28;20052;-42
2022/10/26 06:16:37;;;;;;;11.43;4.07;;;;;;;24.87;34.53;100114.09;5053246;28;20489;-43
2022/10/26 06:19:23;;;;;;;13.57;4.00;;;;;;;25.04;34.42;100108.19;5053787;28;20043;-42
2022/10/26 06:22:00;;;;;;;16.17;3.90;;;;;;;25.28;33.83;100102.72;5053482;28;20098;-42
2022/10/26 06:24:34;;;;;;;13.02;3.75;;;;;;;25.16;33.93;100112.09;5053650;28;20053;-43
2022/10/26 06:27:19;;;;;;;13.80;3.80;;;;;;;25.32;33.85;100115.47;5053550;28;20442;-43
2022/10/26 06:30:01;;;;;;;12.32;4.03;;;;;;;25.73;33.36;100119.50;5053888;28;20071;-43
2022/10/26 06:32:27;;;;;;;11.25;4.45;;;;;;;26.19;33.03;100126.97;5053529;28;20025;-43
2022/10/26 06:35:07;;;;;;;16.50;3.70;;;;;;;26.39;32.44;100134.03;5053505;28;20036;-41
2022/10/26 06:37:34;;;;;;;14.68;3.80;;;;;;;26.25;32.46;100133.97;5053523;28;20440;-42
2022/10/26 06:40:01;;;;;;;8.43;3.72;;;;;;;26.47;32.25;100125.13;5053449;28;20095;-43
2022/10/26 06:42:26;;;;;;;9.98;3.40;;;;;;;26.84;31.98;100128.84;5053231;28;20025;-42
2022/10/26 06:44:52;;;;;;;13.60;3.72;;;;;;;26.75;31.70;100124.38;5053290;28;20027;-42
2022/10/26 06:47:19;;;;;;;10.25;3.80;;;;;;;26.85;31.67;100130.47;5052630;28;20029;-43
2022/10/26 06:49:54;;;;;;;14.48;3.70;;;;;;;26.75;31.74;100136.13;5053247;28;20029;-42
2022/10/26 06:52:42;;;;;;;12.77;3.80;;;;;;;27.10;31.48;100136.53;5053096;28;20035;-42
2022/10/26 06:55:15;;;;;;;17.02;4.18;;;;;;;27.36;30.70;100145.03;5053542;28;20028;-42
2022/10/26 06:57:42;;;;;;;17.80;4.20;;;;;;;27.86;30.24;100139.53;5053386;28;20033;-43
2022/10/26 07:00:14;;;;;;;13.48;3.78;;;;;;;27.53;30.47;100147.13;5052370;28;20090;-42
2022/10/26 07:02:39;;;;;;;14.52;3.80;;;;;;;27.94;30.04;100145.41;5052592;28;20040;-44
2022/10/26 07:05:09;;;;;;;17.20;4.05;;;;;;;27.20;30.71;100147.22;5053053;28;20508;-42
2022/10/26 07:07:39;;;;;;;;;;;;;;;27.80;30.05;100143.50;5053222;28;20047;-42
2022/10/26 07:10:05;;;;;;;11.88;3.80;;;;;;;27.32;30.60;100144.00;5052745;28;19908;-42
2022/10/26 07:12:31;;;;;;;15.50;3.42;;;;;;;27.92;29.85;100142.19;5052331;28;20041;-42
2022/10/26 07:14:56;;;;;;;13.50;3.58;;;;;;;28.38;29.34;100146.50;5052403;28;20036;-43
2022/10/26 07:17:22;;;;;;;16.83;3.70;;;;;;;28.71;28.73;100147.03;5052496;28;20552;-42
2022/10/26 07:19:48;;;;;;;10.57;3.63;;;;;;;27.65;30.01;100152.06;5052480;28;20031;-42
2022/10/26 07:22:13;;;;;;;11.75;3.85;;;;;;;27.75;30.11;100151.00;5052574;28;20040;-42
2022/10/26 07:24:39;;;;;;;8.93;3.22;;;;;;;26.97;30.88;100145.53;5052182;28;20119;-43
2022/10/26 07:27:04;;;;;;;12.10;3.35;;;;;;;26.42;31.81;100148.97;5052148;28;20025;-42
2022/10/26 07:29:30;;;;;;;9.85;3.58;;;;;;;26.60;31.78;100153.59;5052151;28;20469;-42
2022/10/26 07:31:55;;;;;;;12.48;3.35;;;;;;;27.81;30.28;100153.31;5052477;28;20021;-43
2022/10/26 07:34:20;;;;;;;13.98;4.07;;;;;;;28.01;29.76;100152.06;5052294;28;20453;-42
2022/10/26 07:36:46;;;;;;;12.60;3.70;;;;;;;27.49;30.39;100160.59;5052008;28;20389;-42
2022/10/26 07:39:11;;;;;;;13.15;3.70;;;;;;;28.11;29.26;100151.00;5050736;28;20028;-43
2022/10/26 07:41:37;;;;;;;16.25;4.07;;;;;;;27.97;29.29;100151.06;5051690;28;20130;-42
2022/10/26 07:44:02;;;;;;;13.68;3.63;;;;;;;27.95;29.33;100147.00;5051768;28;20017;-42
2022/10/26 07:46:28;;;;;;;14.13;3.90;;;;;;;27.82;29.65;100148.66;5052006;28;20025;-43
2022/10/26 07:48:53;;;;;;;12.93;3.53;;;;;;;27.48;30.62;100155.44;5051719;28;20090;-43
2022/10/26 07:51:19;;;;;;;15.57;4.07;;;;;;;27.39;30.91;100149.06;5051861;28;20036;-42
2022/10/26 07:53:45;;;;;;;13.15;3.75;;;;;;;28.43;29.18;100135.44;5051817;28;20056;-42
2022/10/26 07:56:11;;;;;;;13.43;3.60;;;;;;;27.57;30.30;100139.09;5051897;28;20025;-43
2022/10/26 07:58:37;;;;;;;10.23;3.53;;;;;;;28.51;29.53;100134.66;5051642;28;20031;-43
2022/10/26 08:01:11;;;;;;;14.30;3.30;;;;;;;29.14;28.71;100142.84;5051402;28;20028;-43
2022/10/26 08:03:38;;;;;;;10.52;3.25;;;;;;;29.02;28.70;100137.97;5051707;28;20025;-43
2022/10/26 08:06:04;;;;;;;10.85;3.50;;;;;;;29.60;27.49;100127.75;5051542;28;20139;-43
2022/10/26 08:08:30;;;;;;;11.65;3.80;;;;;;;28.84;28.94;100132.44;5051436;28;20056;-42
2022/10/26 08:10:57;;;;;;;13.98;3.20;;;;;;;29.09;28.59;100134.75;5051343;28;20025;-42
2022/10/26 08:13:22;;;;;;;14.50;3.58;;;;;;;28.42;29.36;100137.34;5050737;28;20104;-43
2022/10/26 08:15:48;;;;;;;12.50;3.47;;;;;;;29.00;28.99;100140.22;5051696;28;20191;-43
2022/10/26 08:18:13;;;;;;;13.00;3.50;;;;;;;29.15;28.43;100142.53;5051753;28;20100;-43
2022/10/26 08:20:39;;;;;;;10.63;3.20;;;;;;;28.98;28.53;100131.50;5051642;28;20028;-42
2022/10/26 08:23:05;;;;;;;12.65;3.75;;;;;;;28.65;29.31;100123.63;5051221;28;20045;-44
2022/10/26 08:25:31;;;;;;;9.50;2.97;;;;;;;28.75;29.08;100136.22;5051765;28;20021;-44
2022/10/26 08:28:01;;;;;;;9.75;2.80;;;;;;;28.17;29.55;100144.28;5051157;28;20028;-45
2022/10/26 08:30:28;;;;;;;23.70;3.78;;;;;;;28.22;31.03;100146.09;5051297;28;20162;-43
2022/10/26 08:33:05;;;;;;;9.20;3.20;;;;;;;28.58;29.00;100137.00;5050725;28;20029;-43
2022/10/26 08:35:31;;;;;;;10.43;2.95;;;;;;;28.78;28.86;100136.41;5049578;28;20021;-43
2022/10/26 08:37:57;;;;;;;8.80;3.55;;;;;;;29.62;28.07;100137.28;5050551;28;20465;-42
2022/10/26 08:40:29;;;;;;;9.38;3.22;;;;;;;30.09;26.69;100122.94;5050292;28;20020;-42
2022/10/26 08:43:03;;;;;;;13.23;3.60;;;;;;;29.70;27.59;100132.94;5050709;28;20048;-44
2022/10/26 08:45:37;;;;;;;11.57;3.35;;;;;;;29.60;27.19;100131.31;5048526;28;20040;-43
2022/10/26 08:48:11;;;;;;;6.95;3.47;;;;;;;30.12;27.91;100136.00;5050919;28;20059;-42
2022/10/26 08:50:58;;;;;;;11.50;3.35;;;;;;;30.71;26.44;100142.78;5050371;28;20029;-44
2022/10/26 08:53:36;;;;;;;9.00;3.00;;;;;;;30.81;25.85;100136.94;5050721;28;20064;-44
2022/10/26 08:56:32;;;;;;;9.43;2.97;;;;;;;30.22;26.57;100137.59;5050300;28;20028;-43
2022/10/26 08:59:03;;;;;;;9.57;2.92;;;;;;;30.22;26.59;100134.84;5049245;28;20035;-43
2022/10/26 09:01:33;;;;;;;13.48;3.47;;;;;;;30.57;26.16;100132.03;5048266;28;20017;-43
2022/10/26 09:04:01;;;;;;;9.93;3.28;;;;;;;30.63;25.56;100127.97;5049798;28;20021;-43
2022/10/26 09:06:26;;;;;;;8.23;2.70;;;;;;;30.49;25.04;100136.41;5047516;28;20337;-42
2022/10/26 09:09:12;;;;;;;6.90;2.70;;;;;;;30.12;26.17;100132.44;5051157;28;20025;-43
2022/10/26 09:11:52;;;;;;;10.45;3.97;;;;;;;29.28;26.97;100126.28;5042834;28;20033;-43
2022/10/26 09:14:20;;;;;;;8.13;3.50;;;;;;;30.08;26.39;100131.47;5049203;28;20029;-45
2022/10/26 09:16:57;;;;;;;7.10;2.97;;;;;;;30.56;25.43;100122.19;5050320;28;20086;-43
2022/10/26 09:19:41;;;;;;;8.18;3.20;;;;;;;30.43;25.42;100126.75;5048818;28;20063;-44
2022/10/26 09:22:19;;;;;;;7.85;2.53;;;;;;;30.01;25.92;100118.28;5049666;28;20559;-43
2022/10/26 09:24:55;;;;;;;10.07;3.17;;;;;;;30.01;25.51;100126.50;5052876;28;20047;-43
2022/10/26 09:27:29;;;;;;;5.90;2.53;;;;;;;30.44;25.35;100122.84;5054217;28;20389;-43
2022/10/26 09:29:59;;;;;;;11.10;2.92;;;;;;;30.15;25.36;100123.56;5054003;28;20036;-43
2022/10/26 09:32:33;;;;;;;6.28;2.80;;;;;;;30.46;25.61;100114.31;5054334;28;20033;-43
2022/10/26 09:35:03;;;;;;;6.90;2.50;;;;;;;30.81;24.90;100120.47;5052980;28;20393;-45
2022/10/26 09:37:34;;;;;;;8.77;3.08;;;;;;;30.81;24.92;100104.00;5052521;28;20033;-42
2022/10/26 09:40:10;;;;;;;6.85;2.83;;;;;;;30.67;24.49;100119.88;5052498;28;20079;-42
2022/10/26 09:43:17;;;;;;;10.48;2.42;;;;;;;30.35;24.68;100119.38;5052961;28;20103;-43
2022/10/26 09:45:51;;;;;;;8.02;2.50;;;;;;;30.26;25.10;100113.06;5050545;28;20051;-43
2022/10/26 09:48:17;;;;;;;4.82;2.67;;;;;;;30.34;25.48;100112.25;5053505;28;20488;-43
2022/10/26 09:50:47;;;;;;;10.32;3.50;;;;;;;29.13;25.96;100106.44;5054279;28;20119;-43
2022/10/26 09:53:12;;;;;;;5.10;2.42;;;;;;;29.50;25.40;100104.22;5054373;28;20027;-44
2022/10/26 09:55:51;;;;;;;6.90;2.20;;;;;;;30.17;24.91;100094.66;5054286;28;20108;-45
2022/10/26 09:58:22;;;;;;;4.47;2.00;;;;;;;30.72;24.84;100092.25;5054075;28;20028;-43
2022/10/26 10:00:49;;;;;;;3.83;2.00;;;;;;;30.72;24.65;100105.97;5054154;28;20032;-42
2022/10/26 10:03:29;;;;;;;5.38;1.90;;;;;;;30.87;24.18;100099.91;5054059;28;20103;-44
2022/10/26 10:06:18;;;;;;;6.05;2.20;;;;;;;30.91;23.25;100092.66;5053882;28;20083;-43
2022/10/26 10:09:05;;;;;;;6.90;2.60;;;;;;;31.21;23.43;100086.34;5053614;28;20029;-44
2022/10/26 10:11:39;;;;;;;8.43;2.53;;;;;;;31.52;23.20;100089.50;5053649;28;20507;-42
2022/10/26 10:14:14;;;;;;;9.63;2.70;;;;;;;31.45;23.27;100093.91;5053650;28;20033;-42
2022/10/26 10:16:41;;;;;;;4.38;2.20;;;;;;;31.37;23.66;100087.34;5053956;28;20051;-45
2022/10/26 10:19:22;;;;;;;6.85;2.42;;;;;;;31.39;23.84;100085.03;5053845;28;20029;-43
2022/10/26 10:21:49;;;;;;;7.38;3.70;;;;;;;31.19;23.83;100081.16;5054143;28;20049;-45
2022/10/26 10:24:47;;;;;;;8.82;3.78;;;;;;;31.12;23.76;100070.69;5053711;28;20126;-44
2022/10/26 10:27:15;;;;;;;8.75;2.47;;;;;;;29.89;25.14;100072.31;5053890;28;20037;-42
2022/10/26 10:29:42;;;;;;;6.70;2.50;;;;;;;30.19;24.94;100081.41;5053876;28;20040;-43
2022/10/26 10:32:14;;;;;;;9.02;2.80;;;;;;;30.80;23.83;100072.94;5053704;28;20536;-42
2022/10/26 10:34:40;;;;;;;10.13;2.72;;;;;;;31.04;23.88;100073.50;5053676;28;20025;-42
2022/10/26 10:37:05;;;;;;;6.28;2.67;;;;;;;31.36;23.42;100075.53;5053086;28;20546;-42
2022/10/26 10:39:38;;;;;;;3.33;1.88;;;;;;;31.42;23.20;100067.09;5053631;28;20423;-43
2022/10/26 10:42:13;;;;;;;5.93;1.80;;;;;;;31.65;23.31;100056.56;5053466;28;20024;-43
2022/10/26 10:44:38;;;;;;;3.35;2.08;;;;;;;31.10;24.03;100058.44;5053415;28;20104;-42
2022/10/26 10:47:06;;;;;;;4.70;1.83;;;;;;;31.03;24.01;100053.44;5053581;28;20386;-42
2022/10/26 10:49:32;;;;;;;6.68;2.08;;;;;;;31.31;23.27;100058.44;5053519;28;20028;-46
2022/10/26 10:51:58;;;;;;;3.22;2.00;;;;;;;30.87;24.01;100049.66;5053054;28;20029;-43
2022/10/26 10:54:34;;;;;;;6.13;1.90;;;;;;;31.44;23.44;100054.59;5053201;28;20106;-42
2022/10/26 10:57:34;;;;;;;3.92;1.85;;;;;;;31.87;22.79;100042.44;5053047;28;20082;-42
2022/10/26 11:00:05;;;;;;;4.80;2.20;;;;;;;32.17;22.49;100044.25;5053003;28;20102;-43
2022/10/26 11:02:36;;;;;;;4.85;1.92;;;;;;;32.24;22.03;100031.50;5052985;28;20036;-43
2022/10/26 11:05:28;;;;;;;3.47;1.92;;;;;;;32.29;22.07;100027.72;5052591;28;20075;-42
2022/10/26 11:08:01;;;;;;;4.63;1.90;;;;;;;31.72;23.15;100030.13;5052834;28;20025;-43
2022/10/26 11:10:33;;;;;;;5.25;2.10;;;;;;;31.91;23.07;100017.78;5052790;28;20029;-43
2022/10/26 11:13:05;;;;;;;4.70;1.65;;;;;;;31.77;22.67;100031.84;5052866;28;20474;-44
2022/10/26 11:15:33;;;;;;;4.75;2.00;;;;;;;32.09;22.58;100023.94;5052995;28;20066;-42
2022/10/26 11:18:18;;;;;;;4.97;1.70;;;;;;;32.10;22.85;100025.53;5052888;28;20025;-42
2022/10/26 11:20:52;;;;;;;7.07;2.20;;;;;;;31.81;23.13;100030.00;5052470;28;20056;-43
2022/10/26 11:23:28;;;;;;;5.57;1.90;;;;;;;32.08;22.56;100025.06;5052520;28;20425;-46
2022/10/26 11:26:04;;;;;;;6.75;1.88;;;;;;;31.93;22.69;100021.81;5052737;28;20475;-43
2022/10/26 11:28:54;;;;;;;7.38;1.98;;;;;;;31.73;22.61;100019.91;5052175;28;20025;-44
2022/10/26 11:31:24;;;;;;;4.07;1.80;;;;;;;31.80;22.64;100009.16;5052303;28;20031;-42
2022/10/26 11:33:58;;;;;;;7.72;1.80;;;;;;;32.48;21.79;99997.69;5051765;28;20425;-42
2022/10/26 11:36:29;;;;;;;4.13;1.90;;;;;;;32.28;21.74;100004.91;5052036;28;20060;-44